Overview Statistics Trail Chart Weather Telemetry Raw packets
 

This is the latest recevied weather packets stored in our database for station/object OK2ZA-6. If no packets are shown the sender has not sent any weather packets the latest 10 day(s).

<< 44 45 46 47 48 49 50 >>
Time Temp. Humidity Pressure Rain* Wind** Luminosity Snow
1788025804 21.67° C 56% 1016.2 hPa 0 mm - - -
1788025204 22.22° C 53% 1016.1 hPa 0 mm - - -
1788024604 22.22° C 51% 1016.1 hPa 0 mm - - -
1788024004 22.78° C 49% 1016.1 hPa 0 mm - - -
1788023404 23.33° C 49% 1016.1 hPa 0 mm - - -
1788022804 23.89° C 47% 1016.1 hPa 0 mm - - -
1788022204 23.89° C 45% 1016.1 hPa 0 mm - - -
1788021604 23.89° C 46% 1016.1 hPa 0 mm - - -
1788021004 23.89° C 47% 1016.1 hPa 0 mm - - -
1788020404 23.89° C 46% 1016.1 hPa 0 mm - - -
1788019804 23.89° C 48% 1016.1 hPa 0 mm - - -
1788019204 23.89° C 47% 1016.2 hPa 0 mm - - -
1788018604 24.44° C 45% 1016.1 hPa 0 mm - - -
1788018004 24.44° C 46% 1016.2 hPa 0 mm - - -
1788017404 24.44° C 46% 1016.2 hPa 0 mm - - -
1788016804 24.44° C 45% 1016.2 hPa 0 mm - - -
1788016204 24.44° C 47% 1016.3 hPa 0 mm - - -
1788015604 24.44° C 46% 1016.3 hPa 0 mm - - -
1788015004 25° C 46% 1016.3 hPa 0 mm - - -
1788014404 24.44° C 46% 1016.4 hPa 0 mm - - -
1788013804 24.44° C 46% 1016.4 hPa 0 mm - - -
1788013204 24.44° C 47% 1016.3 hPa 0 mm - - -
1788012604 24.44° C 47% 1016.3 hPa 0 mm - - -
1788012004 23.89° C 48% 1016.4 hPa 0 mm - - -
1788011404 23.33° C 49% 1016.4 hPa 0 mm - - -

* Rain latest hour (hover to see other rain measurements)
** Current wind speed in m/s (hover to see current wind gust speed)